Map

Track Data

SID SEASON NUMBER BASIN SUBBASIN NAME ISO_TIME NATURE LAT LON WMO_WIND WMO_PRES WMO_AGENCY TRACK_TYPE DIST2LAND LANDFALL IFLAG USA_AGENCY USA_ATCF_ID USA_LAT USA_LON USA_RECORD USA_STATUS USA_WIND USA_PRES USA_SSHS USA_R34_NE USA_R34_SE USA_R34_SW USA_R34_NW USA_R50_NE USA_R50_SE USA_R50_SW USA_R50_NW USA_R64_NE USA_R64_SE USA_R64_SW USA_R64_NW USA_POCI USA_ROCI USA_RMW USA_EYE TOKYO_LAT TOKYO_LON TOKYO_GRADE TOKYO_WIND TOKYO_PRES TOKYO_R50_DIR TOKYO_R50_LONG TOKYO_R50_SHORT TOKYO_R30_DIR TOKYO_R30_LONG TOKYO_R30_SHORT TOKYO_LAND CMA_LAT CMA_LON CMA_CAT CMA_WIND CMA_PRES HKO_LAT HKO_LON HKO_CAT HKO_WIND HKO_PRES NEWDELHI_LAT NEWDELHI_LON NEWDELHI_GRADE NEWDELHI_WIND NEWDELHI_PRES NEWDELHI_CI NEWDELHI_DP NEWDELHI_POCI REUNION_LAT REUNION_LON REUNION_TYPE REUNION_WIND REUNION_PRES REUNION_TNUM REUNION_CI REUNION_RMW REUNION_R34_NE REUNION_R34_SE REUNION_R34_SW REUNION_R34_NW REUNION_R50_NE REUNION_R50_SE REUNION_R50_SW REUNION_R50_NW REUNION_R64_NE REUNION_R64_SE REUNION_R64_SW REUNION_R64_NW BOM_LAT BOM_LON BOM_TYPE BOM_WIND BOM_PRES BOM_TNUM BOM_CI BOM_RMW BOM_R34_NE BOM_R34_SE BOM_R34_SW BOM_R34_NW BOM_R50_NE BOM_R50_SE BOM_R50_SW BOM_R50_NW BOM_R64_NE BOM_R64_SE BOM_R64_SW BOM_R64_NW BOM_ROCI BOM_POCI BOM_EYE BOM_POS_METHOD BOM_PRES_METHOD NADI_LAT NADI_LON NADI_CAT NADI_WIND NADI_PRES WELLINGTON_LAT WELLINGTON_LON WELLINGTON_WIND WELLINGTON_PRES DS824_LAT DS824_LON DS824_STAGE DS824_WIND DS824_PRES TD9636_LAT TD9636_LON TD9636_STAGE TD9636_WIND TD9636_PRES TD9635_LAT TD9635_LON TD9635_WIND TD9635_PRES TD9635_ROCI NEUMANN_LAT NEUMANN_LON NEUMANN_CLASS NEUMANN_WIND NEUMANN_PRES MLC_LAT MLC_LON MLC_CLASS MLC_WIND MLC_PRES USA_GUST BOM_GUST BOM_GUST_PER REUNION_GUST REUNION_GUST_PER USA_SEAHGT USA_SEARAD_NE USA_SEARAD_SE USA_SEARAD_SW USA_SEARAD_NW STORM_SPEED STORM_DIR
1872280N18291 1872 26 NA CS NOT_NAMED 1872-10-05 12:00:00 TS 17.5000 -68.8000 main 78 44 _____________O -1 17.5000 -68.8000 TS 40 16 320
1872280N18291 1872 26 NA CS NOT_NAMED 1872-10-05 15:00:00 TS 18.1202 -69.3368 main 44 0 _____________P -1 18.1202 -69.3368 TS 42 16 319
1872280N18291 1872 26 NA NA NOT_NAMED 1872-10-05 18:00:00 TS 18.7000 -69.9000 main 0 0 _____________O -1 18.7000 -69.9000 TS 45 16 315
1872280N18291 1872 26 NA NA NOT_NAMED 1872-10-05 21:00:00 TS 19.2276 -70.4878 main 0 0 _____________P -1 19.2276 -70.4878 TS 47 15 317
1872280N18291 1872 26 NA NA NOT_NAMED 1872-10-06 00:00:00 TS 19.8000 -71.0000 main 0 0 _____________O -1 19.8000 -71.0000 TS 50 15 328
1872280N18291 1872 26 NA NA NOT_NAMED 1872-10-06 03:00:00 TS 20.5197 -71.3381 main 78 78 _____________P -1 20.5197 -71.3381 TS 55 16 339
1872280N18291 1872 26 NA NA NOT_NAMED 1872-10-06 06:00:00 TS 21.3000 -71.6000 main 145 132 _____________O -1 21.3000 -71.6000 TS 60 17 338
1872280N18291 1872 26 NA NA NOT_NAMED 1872-10-06 09:00:00 TS 22.1174 -72.0336 main 144 144 _____________P -1 22.1174 -72.0336 TS 60 16 340
1872280N18291 1872 26 NA NA NOT_NAMED 1872-10-06 12:00:00 TS 22.8000 -72.2000 main 196 196 _____________O -1 22.8000 -72.2000 TS 60 11 15
1872280N18291 1872 26 NA NA NOT_NAMED 1872-10-06 15:00:00 TS 23.1755 -71.7283 main 260 260 _____________P -1 23.1755 -71.7283 TS 62 13 61
1872280N18291 1872 26 NA NA NOT_NAMED 1872-10-06 18:00:00 TS 23.4000 -71.0000 main 320 320 _____________O -1 23.4000 -71.0000 HU 65 13 68
1872280N18291 1872 26 NA NA NOT_NAMED 1872-10-06 21:00:00 TS 23.6497 -70.4421 main 378 378 _____________P -1 23.6497 -70.4421 HU 65 11 64
1872280N18291 1872 26 NA NA NOT_NAMED 1872-10-07 00:00:00 TS 23.9000 -69.9000 main 438 438 _____________O -1 23.9000 -69.9000 HU 65 11 61
1872280N18291 1872 26 NA NA NOT_NAMED 1872-10-07 03:00:00 TS 24.1998 -69.3499 main 506 506 _____________P -1 24.1998 -69.3499 HU 65 12 59
1872280N18291 1872 26 NA NA NOT_NAMED 1872-10-07 06:00:00 TS 24.5000 -68.8000 main 557 557 _____________O -1 24.5000 -68.8000 HU 65 12 61
1872280N18291 1872 26 NA NA NOT_NAMED 1872-10-07 09:00:00 TS 24.7650 -68.2274 main 610 610 _____________P -1 24.7650 -68.2274 HU 65 11 63
1872280N18291 1872 26 NA NA NOT_NAMED 1872-10-07 12:00:00 TS 25.0000 -67.7000 main 648 648 _____________O -1 25.0000 -67.7000 HU 65 10 63
1872280N18291 1872 26 NA NA NOT_NAMED 1872-10-07 15:00:00 TS 25.2147 -67.2698 main 684 684 _____________P -1 25.2147 -67.2698 HU 65 8 61
1872280N18291 1872 26 NA NA NOT_NAMED 1872-10-07 18:00:00 TS 25.4000 -66.9000 main 722 722 _____________O -1 25.4000 -66.9000 HU 65 7 62
1872280N18291 1872 26 NA NA NOT_NAMED 1872-10-07 21:00:00 TS 25.5574 -66.5423 main 760 760 _____________P -1 25.5574 -66.5423 HU 65 7 65
1872280N18291 1872 26 NA NA NOT_NAMED 1872-10-08 00:00:00 TS 25.7000 -66.2000 main 782 782 _____________O -1 25.7000 -66.2000 HU 65 7 65
1872280N18291 1872 26 NA NA NOT_NAMED 1872-10-08 03:00:00 TS 25.8499 -65.8574 main 805 805 _____________P -1 25.8499 -65.8574 HU 65 7 65
1872280N18291 1872 26 NA NA NOT_NAMED 1872-10-08 06:00:00 TS 26.0000 -65.5000 main 844 844 _____________O -1 26.0000 -65.5000 HU 65 7 69
1872280N18291 1872 26 NA NA NOT_NAMED 1872-10-08 09:00:00 TS 26.1050 -65.1069 main 862 862 _____________P -1 26.1050 -65.1069 HU 65 8 67
1872280N18291 1872 26 NA NA NOT_NAMED 1872-10-08 12:00:00 TS 26.3000 -64.7000 main 887 887 _____________O -1 26.3000 -64.7000 HU 65 9 50
1872280N18291 1872 26 NA NA NOT_NAMED 1872-10-08 15:00:00 TS 26.7049 -64.3001 main 937 937 _____________P -1 26.7049 -64.3001 HU 67 12 38
1872280N18291 1872 26 NA NA NOT_NAMED 1872-10-08 18:00:00 TS 27.2000 -63.9000 main 998 998 _____________O -1 27.2000 -63.9000 HU 70 12 37
1872280N18291 1872 26 NA NA NOT_NAMED 1872-10-08 21:00:00 TS 27.6499 -63.4997 main 1050 1050 _____________P -1 27.6499 -63.4997 HU 70 11 38
1872280N18291 1872 26 NA NA NOT_NAMED 1872-10-09 00:00:00 TS 28.1000 -63.1000 main 1113 1113 _____________O -1 28.1000 -63.1000 HU 70 12 38
1872280N18291 1872 26 NA NA NOT_NAMED 1872-10-09 03:00:00 TS 28.5574 -62.6997 main 1177 1177 _____________P -1 28.5574 -62.6997 HU 70 11 38
1872280N18291 1872 26 NA NA NOT_NAMED 1872-10-09 06:00:00 TS 29.0000 -62.3000 main 1231 1231 _____________O -1 29.0000 -62.3000 HU 70 11 41
1872280N18291 1872 26 NA NA NOT_NAMED 1872-10-09 09:00:00 TS 29.3849 -61.8919 main 1285 1285 _____________P -1 29.3849 -61.8919 HU 70 11 41
1872280N18291 1872 26 NA NA NOT_NAMED 1872-10-09 12:00:00 TS 29.8000 -61.5000 main 1339 1339 _____________O -1 29.8000 -61.5000 HU 70 12 35
1872280N18291 1872 26 NA NA NOT_NAMED 1872-10-09 15:00:00 TS 30.3349 -61.1349 main 1405 1405 _____________P -1 30.3349 -61.1349 HU 70 13 29
1872280N18291 1872 26 NA NA NOT_NAMED 1872-10-09 18:00:00 TS 30.9000 -60.8000 main 1455 1411 _____________O -1 30.9000 -60.8000 HU 70 12 27
1872280N18291 1872 26 NA NA NOT_NAMED 1872-10-09 21:00:00 TS 31.3999 -60.4919 main 1411 1366 _____________P -1 31.3999 -60.4919 HU 70 11 27
1872280N18291 1872 26 NA NA NOT_NAMED 1872-10-10 00:00:00 TS 31.9000 -60.2000 main 1366 1322 _____________O -1 31.9000 -60.2000 HU 70 12 26
1872280N18291 1872 26 NA NA NOT_NAMED 1872-10-10 03:00:00 TS 32.4499 -59.8998 main 1322 1269 _____________P -1 32.4499 -59.8998 HU 70 12 25
1872280N18291 1872 26 NA NA NOT_NAMED 1872-10-10 06:00:00 TS 33.0000 -59.6000 main 1269 1228 _____________O -1 33.0000 -59.6000 HU 70 12 26
1872280N18291 1872 26 NA NA NOT_NAMED 1872-10-10 09:00:00 TS 33.5225 -59.2850 main 1228 1188 _____________P -1 33.5225 -59.2850 HU 70 11 27
1872280N18291 1872 26 NA NA NOT_NAMED 1872-10-10 12:00:00 TS 34.0000 -59.0000 main 1188 1156 _____________O -1 34.0000 -59.0000 HU 70 10 25
1872280N18291 1872 26 NA NA NOT_NAMED 1872-10-10 15:00:00 TS 34.4224 -58.7845 main 1156 1125 _____________P -1 34.4224 -58.7845 HU 70 9 23
1872280N18291 1872 26 NA NA NOT_NAMED 1872-10-10 18:00:00 TS 34.8000 -58.6000 main 1125 1101 _____________O -1 34.8000 -58.6000 HU 70 8 23
1872280N18291 1872 26 NA NA NOT_NAMED 1872-10-10 21:00:00 TS 35.1500 -58.3997 main 1105 1076 _____________P -1 35.1500 -58.3997 HU 70 8 25
1872280N18291 1872 26 NA NA NOT_NAMED 1872-10-11 00:00:00 TS 35.5000 -58.2000 main 1076 1049 _____________O -1 35.5000 -58.2000 HU 70 8 24
1872280N18291 1872 26 NA NA NOT_NAMED 1872-10-11 03:00:00 TS 35.9000 -57.9925 main 1049 1023 _____________P -1 35.9000 -57.9925 HU 70 9 22
1872280N18291 1872 26 NA NA NOT_NAMED 1872-10-11 06:00:00 TS 36.3000 -57.8000 main 1023 997 _____________O -1 36.3000 -57.8000 HU 70 8 20
1872280N18291 1872 26 NA NA NOT_NAMED 1872-10-11 09:00:00 TS 36.6123 -57.6713 main 997 960 _____________P -1 36.6123 -57.6713 HU 70 7 19
1872280N18291 1872 26 NA NA NOT_NAMED 1872-10-11 12:00:00 TS 37.0000 -57.5000 main 960 905 _____________O -1 37.0000 -57.5000 HU 70 11 21
1872280N18291 1872 26 NA NA NOT_NAMED 1872-10-11 15:00:00 TS 37.6051 -57.1878 main 905 845 _____________P -1 37.6051 -57.1878 HU 70 14 23
1872280N18291 1872 26 NA NA NOT_NAMED 1872-10-11 18:00:00 TS 38.3000 -56.8000 main 845 796 _____________O -1 38.3000 -56.8000 HU 70 982 15 24
1872280N18291 1872 26 NA NA NOT_NAMED 1872-10-11 21:00:00 TS 38.9423 -56.4214 main 800 749 _____________P -1 38.9423 -56.4214 HU 70 14 26
1872280N18291 1872 26 NA NA NOT_NAMED 1872-10-12 00:00:00 TS 39.6000 -56.0000 main 749 713 _____________O -1 39.6000 -56.0000 HU 70 15 28
1872280N18291 1872 26 NA NA NOT_NAMED 1872-10-12 03:00:00 TS 40.2850 -55.5144 main 709 632 _____________P -1 40.2850 -55.5144 HU 67 16 29
1872280N18291 1872 26 NA NA NOT_NAMED 1872-10-12 06:00:00 TS 41.0000 -55.0000 main 632 549 _____________O -1 41.0000 -55.0000 HU 65 16 28
1872280N18291 1872 26 NA NA NOT_NAMED 1872-10-12 09:00:00 TS 41.7428 -54.4972 main 549 456 _____________P -1 41.7428 -54.4972 HU 57 17 26
1872280N18291 1872 26 NA NA NOT_NAMED 1872-10-12 12:00:00 TS 42.5000 -54.0000 main 456 _____________O -1 42.5000 -54.0000 TS 50 17 26

About IBTrACS Database

This database is a web-friendly format of International Best Track Archive for Climate Stewardship (IBTrACS), a global best track data archive curated by NOAA dating back to 1842.

Updated: 2021-12-08